createdAt,value
2018-08-21T00:00:50.711Z,78.50
2018-08-21T00:03:18.319Z,81.02
2018-08-21T00:05:46.248Z,81.57
2018-08-21T00:08:13.776Z,79.35
2018-08-21T00:10:42.543Z,88.93
2018-08-21T00:13:11.159Z,102.17
2018-08-21T00:15:39.304Z,103.83
2018-08-21T00:18:07.434Z,87.60
2018-08-21T00:20:35.354Z,81.20
2018-08-21T00:23:04.046Z,94.50
2018-08-21T00:25:32.034Z,86.50
2018-08-21T00:27:59.709Z,108.80
2018-08-21T00:30:33.457Z,94.95
2018-08-21T00:33:02.257Z,107.20
2018-08-21T00:35:31.968Z,91.85
2018-08-21T00:37:59.516Z,77.25
2018-08-21T00:40:27.673Z,74.97
2018-08-21T00:42:55.673Z,86.05
2018-08-21T00:45:23.589Z,108.92
2018-08-21T00:47:51.507Z,86.78
2018-08-21T00:50:19.128Z,85.40
2018-08-21T00:52:46.960Z,92.95
2018-08-21T00:55:15.037Z,97.12
2018-08-21T00:57:43.180Z,101.07
2018-08-21T01:00:10.692Z,92.47
2018-08-21T01:02:38.202Z,89.97
2018-08-21T01:05:07.196Z,94.95
2018-08-21T01:07:35.764Z,89.58
2018-08-21T01:10:03.602Z,81.30
2018-08-21T01:12:31.416Z,80.07
2018-08-21T01:14:59.892Z,91.75
2018-08-21T01:17:27.359Z,86.12
2018-08-21T01:19:55.320Z,89.27
2018-08-21T01:22:23.905Z,78.33
2018-08-21T01:24:51.507Z,91.75
2018-08-21T01:27:19.216Z,83.65
2018-08-21T01:29:47.211Z,86.20
2018-08-21T01:32:15.302Z,82.47
2018-08-21T01:34:43.777Z,72.30
2018-08-21T01:37:11.616Z,87.35
2018-08-21T01:39:39.742Z,78.35
2018-08-21T01:42:07.366Z,75.15
2018-08-21T01:44:35.047Z,69.53
2018-08-21T01:47:08.042Z,80.38
2018-08-21T01:49:36.247Z,70.83
2018-08-21T01:52:04.559Z,74.92
2018-08-21T01:54:32.836Z,73.75
2018-08-21T01:57:01.311Z,85.03
2018-08-21T01:59:29.064Z,67.67
2018-08-21T02:01:57.080Z,73.70
2018-08-21T02:04:24.727Z,77.60
2018-08-21T02:06:52.577Z,93.80
2018-08-21T02:09:20.336Z,67.95
2018-08-21T02:11:48.258Z,68.52
2018-08-21T02:14:16.177Z,71.67
2018-08-21T02:16:44.303Z,66.17
2018-08-21T02:19:12.220Z,83.80
2018-08-21T02:21:39.843Z,74.97
2018-08-21T02:24:08.301Z,86.57
2018-08-21T02:26:36.217Z,64.92
2018-08-21T02:29:04.003Z,70.15
2018-08-21T02:31:31.487Z,63.38
2018-08-21T02:33:59.537Z,71.97
2018-08-21T02:36:27.137Z,67.23
2018-08-21T02:38:54.676Z,60.92
2018-08-21T02:41:23.077Z,79.27
2018-08-21T02:43:50.829Z,58.83
2018-08-21T02:46:20.510Z,51.50
2018-08-21T02:48:49.700Z,54.33
2018-08-21T02:51:22.476Z,60.15
2018-08-21T02:53:50.237Z,58.38
2018-08-21T02:56:18.419Z,68.02
2018-08-21T02:58:46.277Z,60.98
2018-08-21T03:01:15.681Z,59.35
2018-08-21T03:03:48.505Z,57.38
2018-08-21T03:06:16.613Z,60.17
2018-08-21T03:08:44.260Z,66.45
2018-08-21T03:11:12.383Z,63.93
2018-08-21T03:13:40.148Z,59.97
2018-08-21T03:16:08.014Z,59.80
2018-08-21T03:18:35.788Z,85.62
2018-08-21T03:21:03.444Z,68.13
2018-08-21T03:23:31.140Z,73.35
2018-08-21T03:25:58.903Z,59.20
2018-08-21T03:28:26.949Z,64.82
2018-08-21T03:30:55.112Z,68.78
2018-08-21T03:33:22.557Z,51.00
2018-08-21T03:35:50.680Z,79.80
2018-08-21T03:38:18.617Z,65.03
2018-08-21T03:40:46.737Z,71.17
2018-08-21T03:43:14.652Z,61.40
2018-08-21T03:45:42.519Z,56.30
2018-08-21T03:48:10.328Z,68.12
2018-08-21T03:50:37.811Z,78.57
2018-08-21T03:53:06.032Z,69.75
2018-08-21T03:55:33.895Z,81.17
2018-08-21T03:58:02.885Z,74.25
2018-08-21T04:00:30.616Z,77.33
2018-08-21T04:02:58.328Z,71.40
2018-08-21T04:05:25.783Z,66.12
2018-08-21T04:07:53.246Z,68.00
2018-08-21T04:10:21.789Z,71.40
2018-08-21T04:12:49.607Z,60.70
2018-08-21T04:15:17.396Z,74.80
2018-08-21T04:17:45.925Z,61.68
2018-08-21T04:20:14.323Z,64.07
2018-08-21T04:22:42.399Z,64.07
2018-08-21T04:25:11.317Z,84.58
2018-08-21T04:27:39.859Z,65.78
2018-08-21T04:30:08.391Z,62.85
2018-08-21T04:32:36.342Z,73.63
2018-08-21T04:35:04.084Z,71.97
2018-08-21T04:37:32.136Z,59.33
2018-08-21T04:40:00.160Z,59.83
2018-08-21T04:42:28.241Z,76.72
2018-08-21T04:44:56.515Z,59.67
2018-08-21T04:47:34.740Z,61.00
2018-08-21T04:50:03.867Z,80.07
2018-08-21T04:52:32.273Z,75.55
2018-08-21T04:55:00.956Z,68.07
2018-08-21T04:57:28.965Z,61.45
2018-08-21T04:59:57.857Z,70.62
2018-08-21T05:02:32.016Z,75.90
2018-08-21T05:04:59.603Z,70.70
2018-08-21T05:07:33.643Z,71.17
2018-08-21T05:10:01.957Z,71.90
2018-08-21T05:12:30.285Z,74.45
2018-08-21T05:14:58.823Z,71.02
2018-08-21T05:17:26.687Z,72.15
2018-08-21T05:19:54.449Z,69.43
2018-08-21T05:22:23.340Z,87.47
2018-08-21T05:24:51.049Z,82.22
2018-08-21T05:27:18.701Z,88.67
2018-08-21T05:29:46.144Z,75.70
2018-08-21T05:32:14.092Z,76.35
2018-08-21T05:34:42.185Z,87.62
2018-08-21T05:37:09.979Z,80.15
2018-08-21T05:39:37.692Z,73.52
2018-08-21T05:42:05.783Z,74.62
2018-08-21T05:44:39.467Z,76.25
2018-08-21T05:47:07.082Z,76.37
2018-08-21T05:49:34.580Z,80.22
2018-08-21T05:52:02.616Z,89.62
2018-08-21T05:54:30.529Z,75.97
2018-08-21T05:56:58.627Z,83.00
2018-08-21T05:59:26.249Z,84.28
2018-08-21T06:01:53.791Z,96.53
2018-08-21T06:04:21.299Z,81.95
2018-08-21T06:06:49.385Z,89.13
2018-08-21T06:09:17.005Z,79.27
2018-08-21T06:11:44.513Z,84.60
2018-08-21T06:14:12.141Z,99.43
2018-08-21T06:16:54.604Z,74.82
2018-08-21T06:19:23.481Z,81.80
2018-08-21T06:21:51.311Z,89.72
2018-08-21T06:24:19.294Z,85.42
2018-08-21T06:26:47.578Z,83.77
2018-08-21T06:29:15.231Z,87.90
2018-08-21T06:31:43.493Z,89.80
2018-08-21T06:34:11.668Z,85.15
2018-08-21T06:36:40.069Z,86.15
2018-08-21T06:39:13.337Z,96.45
2018-08-21T06:41:42.835Z,86.50
2018-08-21T06:44:13.572Z,96.17
2018-08-21T06:46:45.150Z,77.40
2018-08-21T06:49:14.517Z,101.97
2018-08-21T06:51:43.145Z,94.28
2018-08-21T06:54:10.865Z,105.77
2018-08-21T06:56:38.539Z,95.28
2018-08-21T06:59:13.128Z,96.57
2018-08-21T07:01:42.139Z,112.63
2018-08-21T07:04:10.029Z,106.97
2018-08-21T07:06:37.526Z,126.70
2018-08-21T07:09:06.435Z,107.15
2018-08-21T07:11:33.988Z,118.63
2018-08-21T07:14:01.475Z,135.57
2018-08-21T07:16:28.955Z,144.20
2018-08-21T07:18:56.777Z,125.33
2018-08-21T07:21:29.448Z,122.25
2018-08-21T07:23:56.981Z,141.40
2018-08-21T07:26:25.142Z,139.03
2018-08-21T07:28:53.050Z,138.95
2018-08-21T07:31:20.559Z,152.40
2018-08-21T07:33:48.532Z,144.37
2018-08-21T07:36:16.707Z,143.32
2018-08-21T07:38:47.984Z,136.73
2018-08-21T07:41:15.896Z,114.82
2018-08-21T07:43:44.719Z,133.37
2018-08-21T07:46:13.300Z,163.10
2018-08-21T07:48:50.940Z,123.33
2018-08-21T07:51:18.673Z,147.53
2018-08-21T07:53:48.304Z,156.97
2018-08-21T07:56:16.548Z,148.25
2018-08-21T07:58:50.616Z,150.00
2018-08-21T08:01:18.400Z,165.10
2018-08-21T08:03:46.501Z,157.72
2018-08-21T08:06:18.669Z,151.68
2018-08-21T08:08:50.623Z,156.18
2018-08-21T08:11:18.609Z,160.32
2018-08-21T08:13:47.523Z,149.70
2018-08-21T08:16:15.459Z,157.20
2018-08-21T08:18:47.521Z,171.30
2018-08-21T08:21:20.861Z,158.97
2018-08-21T08:23:50.985Z,155.70
2018-08-21T08:26:19.328Z,180.00
2018-08-21T08:28:51.282Z,147.55
2018-08-21T08:31:19.719Z,165.23
2018-08-21T08:33:48.054Z,159.65
2018-08-21T08:36:15.912Z,149.10
2018-08-21T08:38:44.289Z,169.25
2018-08-21T08:41:16.191Z,147.20
2018-08-21T08:43:43.907Z,156.82
2018-08-21T08:46:21.744Z,137.87
2018-08-21T08:48:58.959Z,168.17
2018-08-21T08:51:36.694Z,162.25
2018-08-21T08:54:16.322Z,156.87
2018-08-21T08:56:56.180Z,156.75
2018-08-21T08:59:33.907Z,172.85
2018-08-21T09:02:06.823Z,160.40
2018-08-21T09:04:34.637Z,159.13
2018-08-21T09:07:02.776Z,159.35
2018-08-21T09:09:31.089Z,133.40
2018-08-21T09:12:00.037Z,141.47
2018-08-21T09:14:33.272Z,162.43
2018-08-21T09:17:10.534Z,224.82
2018-08-21T09:19:42.797Z,166.40
2018-08-21T09:22:11.515Z,153.97
2018-08-21T09:24:39.209Z,148.38
2018-08-21T09:27:06.909Z,171.13
2018-08-21T09:29:34.938Z,157.10
2018-08-21T09:32:03.009Z,174.38
2018-08-21T09:34:31.467Z,216.43
2018-08-21T09:37:03.372Z,280.15
2018-08-21T09:39:31.556Z,253.33
2018-08-21T09:42:04.565Z,253.80
2018-08-21T09:44:32.081Z,228.65
2018-08-21T09:46:59.922Z,229.23
2018-08-21T09:49:27.393Z,252.82
2018-08-21T09:51:55.484Z,295.20
2018-08-21T09:54:23.316Z,327.25
2018-08-21T09:56:51.006Z,296.77
2018-08-21T09:59:20.915Z,314.73
2018-08-21T10:02:52.537Z,302.95
2018-08-21T10:05:25.472Z,311.53
2018-08-21T10:07:55.468Z,319.73
2018-08-21T10:10:23.448Z,348.57
2018-08-21T10:12:52.224Z,300.30
2018-08-21T10:15:19.777Z,265.05
2018-08-21T10:17:51.555Z,348.95
2018-08-21T10:20:19.977Z,273.97
2018-08-21T10:22:47.419Z,307.80
2018-08-21T10:25:14.931Z,336.20
2018-08-21T10:27:42.728Z,370.90
2018-08-21T10:30:11.027Z,307.20
2018-08-21T10:32:39.220Z,309.73
2018-08-21T10:35:06.804Z,336.35
2018-08-21T10:37:39.714Z,332.70
2018-08-21T10:40:07.987Z,382.10
2018-08-21T10:42:36.049Z,402.47
2018-08-21T10:45:04.841Z,425.50
2018-08-21T10:47:32.371Z,337.95
2018-08-21T10:49:59.952Z,363.20
2018-08-21T10:52:27.911Z,322.52
2018-08-21T10:54:55.388Z,331.57
2018-08-21T10:57:23.019Z,354.67
2018-08-21T10:59:50.917Z,328.52
2018-08-21T11:02:53.855Z,354.93
2018-08-21T11:05:21.733Z,357.18
2018-08-21T11:07:58.760Z,282.50
2018-08-21T11:10:27.792Z,349.98
2018-08-21T11:12:55.685Z,377.98
2018-08-21T11:15:23.484Z,370.53
2018-08-21T11:17:50.981Z,439.80
2018-08-21T11:20:24.339Z,333.73
2018-08-21T11:22:53.709Z,386.45
2018-08-21T11:25:21.537Z,386.92
2018-08-21T11:27:49.368Z,425.75
2018-08-21T11:30:17.138Z,375.43
2018-08-21T11:32:45.472Z,364.70
2018-08-21T11:35:13.397Z,400.57
2018-08-21T11:37:41.182Z,434.20
2018-08-21T11:40:10.340Z,441.88
2018-08-21T11:42:37.865Z,408.67
2018-08-21T11:45:05.360Z,404.30
2018-08-21T11:47:32.917Z,414.75
2018-08-21T11:50:00.375Z,450.05
2018-08-21T11:52:27.836Z,445.30
2018-08-21T11:54:56.221Z,439.13
2018-08-21T11:57:24.288Z,433.32
2018-08-21T11:59:51.810Z,412.72
2018-08-21T12:02:19.620Z,435.13
2018-08-21T12:04:47.479Z,437.93
2018-08-21T12:07:15.276Z,386.15
2018-08-21T12:09:43.336Z,425.03
2018-08-21T12:12:10.881Z,465.02
2018-08-21T12:14:39.016Z,424.15
2018-08-21T12:17:06.688Z,441.57
2018-08-21T12:19:34.479Z,436.02
2018-08-21T12:22:02.046Z,415.35
2018-08-21T12:24:29.524Z,432.73
2018-08-21T12:26:57.188Z,459.90
2018-08-21T12:29:25.044Z,418.82
2018-08-21T12:31:53.099Z,420.57
2018-08-21T12:34:20.576Z,451.73
2018-08-21T12:36:48.104Z,470.60
2018-08-21T12:39:15.889Z,466.67
2018-08-21T12:41:44.123Z,468.85
2018-08-21T12:44:12.232Z,439.50
2018-08-21T12:46:39.655Z,471.33
2018-08-21T12:49:07.927Z,477.00
2018-08-21T12:51:35.471Z,473.97
2018-08-21T12:54:03.715Z,440.23
2018-08-21T12:56:31.609Z,466.08
2018-08-21T12:58:59.128Z,425.48
2018-08-21T13:01:27.613Z,453.02
2018-08-21T13:03:55.429Z,464.67
2018-08-21T13:06:22.944Z,450.77
2018-08-21T13:08:50.613Z,444.40
2018-08-21T13:11:18.473Z,391.42
2018-08-21T13:13:46.049Z,425.92
2018-08-21T13:16:13.511Z,444.00
2018-08-21T13:18:41.260Z,422.83
2018-08-21T13:21:09.114Z,443.05
2018-08-21T13:23:36.829Z,494.80
2018-08-21T13:26:04.645Z,416.12
2018-08-21T13:28:32.396Z,451.75
2018-08-21T13:31:00.552Z,424.40
2018-08-21T13:33:28.353Z,469.77
2018-08-21T13:35:55.915Z,515.60
2018-08-21T13:38:23.637Z,435.78
2018-08-21T13:40:51.332Z,460.85
2018-08-21T13:43:19.204Z,454.10
2018-08-21T13:45:46.903Z,449.85
2018-08-21T13:48:14.464Z,445.50
2018-08-21T13:50:42.228Z,433.80
2018-08-21T13:53:09.711Z,476.00
2018-08-21T13:55:37.558Z,469.20
2018-08-21T13:58:06.105Z,463.18
2018-08-21T14:00:34.092Z,468.65
2018-08-21T14:03:01.832Z,437.52
2018-08-21T14:05:29.357Z,430.67
2018-08-21T14:07:57.166Z,479.55
2018-08-21T14:10:24.637Z,444.37
2018-08-21T14:12:52.430Z,442.55
2018-08-21T14:15:20.212Z,457.23
2018-08-21T14:17:47.756Z,448.50
2018-08-21T14:20:15.323Z,469.63
2018-08-21T14:22:42.755Z,402.25
2018-08-21T14:25:10.275Z,456.45
2018-08-21T14:27:38.057Z,517.90
2018-08-21T14:30:05.576Z,418.63
2018-08-21T14:32:33.165Z,454.85
2018-08-21T14:35:00.926Z,484.90
2018-08-21T14:37:28.392Z,473.62
2018-08-21T14:39:56.084Z,514.05
2018-08-21T14:42:23.570Z,498.37
2018-08-21T14:44:51.257Z,467.18
2018-08-21T14:47:18.777Z,464.93
2018-08-21T14:49:46.292Z,440.10
2018-08-21T14:52:13.783Z,479.68
2018-08-21T14:54:41.494Z,432.90
2018-08-21T14:57:09.103Z,464.80
2018-08-21T14:59:36.856Z,487.20
2018-08-21T15:02:04.653Z,483.57
2018-08-21T15:04:32.116Z,414.60
2018-08-21T15:07:00.104Z,469.30
2018-08-21T15:09:27.647Z,469.82
2018-08-21T15:11:55.311Z,489.83
2018-08-21T15:14:22.855Z,495.60
2018-08-21T15:16:50.595Z,475.70
2018-08-21T15:19:18.380Z,469.67
2018-08-21T15:21:46.121Z,471.72
2018-08-21T15:24:13.875Z,483.85
2018-08-21T15:26:42.161Z,510.75
2018-08-21T15:29:09.919Z,526.17
2018-08-21T15:31:37.342Z,506.85
2018-08-21T15:34:05.454Z,498.85
2018-08-21T15:36:33.013Z,492.98
2018-08-21T15:39:00.918Z,503.80
2018-08-21T15:41:28.328Z,486.23
2018-08-21T15:43:56.026Z,503.92
2018-08-21T15:46:23.588Z,526.02
2018-08-21T15:48:51.337Z,497.40
2018-08-21T15:51:18.953Z,479.90
2018-08-21T15:53:46.443Z,453.75
2018-08-21T15:56:14.219Z,521.65
2018-08-21T15:58:41.951Z,504.57
2018-08-21T16:01:09.789Z,570.05
2018-08-21T16:03:37.345Z,478.80
2018-08-21T16:06:04.818Z,491.70
2018-08-21T16:08:33.009Z,497.63
2018-08-21T16:11:01.135Z,520.05
2018-08-21T16:13:28.843Z,515.85
2018-08-21T16:15:56.632Z,476.95
2018-08-21T16:18:24.456Z,455.73
2018-08-21T16:20:52.268Z,493.75
2018-08-21T16:23:20.077Z,516.23
2018-08-21T16:25:47.912Z,547.03
2018-08-21T16:28:15.440Z,525.67
2018-08-21T16:30:43.789Z,522.48
2018-08-21T16:33:11.312Z,490.58
2018-08-21T16:35:39.368Z,474.88
2018-08-21T16:38:07.146Z,521.80
2018-08-21T16:40:34.766Z,491.08
2018-08-21T16:43:03.149Z,500.68
2018-08-21T16:45:31.248Z,465.23
2018-08-21T16:47:59.113Z,468.17
2018-08-21T16:50:26.668Z,466.77
2018-08-21T16:52:54.516Z,444.75
2018-08-21T16:55:22.353Z,493.55
2018-08-21T16:57:49.869Z,514.42
2018-08-21T17:00:17.834Z,466.95
2018-08-21T17:02:51.239Z,431.52
2018-08-21T17:05:18.709Z,434.52
2018-08-21T17:07:46.200Z,445.18
2018-08-21T17:10:13.930Z,448.52
2018-08-21T17:12:41.992Z,391.93
2018-08-21T17:15:10.071Z,400.57
2018-08-21T17:17:37.540Z,399.45
2018-08-21T17:20:05.395Z,382.12
2018-08-21T17:22:32.937Z,379.30
2018-08-21T17:25:01.121Z,364.52
2018-08-21T17:27:28.748Z,421.30
2018-08-21T17:29:56.401Z,477.40
2018-08-21T17:32:25.163Z,407.55
2018-08-21T17:34:52.722Z,404.63
2018-08-21T17:37:20.769Z,378.32
2018-08-21T17:39:48.564Z,399.40
2018-08-21T17:42:16.036Z,335.27
2018-08-21T17:44:43.532Z,345.33
2018-08-21T17:47:11.005Z,306.80
2018-08-21T17:49:39.216Z,310.77
2018-08-21T17:52:07.045Z,316.85
2018-08-21T17:54:35.333Z,267.40
2018-08-21T17:57:03.417Z,339.10
2018-08-21T17:59:31.629Z,269.87
2018-08-21T18:01:59.561Z,312.70
2018-08-21T18:04:27.210Z,274.25
2018-08-21T18:06:54.721Z,298.07
2018-08-21T18:09:22.569Z,264.70
2018-08-21T18:11:50.613Z,248.03
2018-08-21T18:14:18.496Z,294.82
2018-08-21T18:16:46.224Z,279.60
2018-08-21T18:19:13.912Z,220.55
2018-08-21T18:21:41.525Z,243.60
2018-08-21T18:24:09.047Z,199.45
2018-08-21T18:26:38.002Z,246.15
2018-08-21T18:29:06.652Z,232.80
2018-08-21T18:31:34.592Z,191.85
2018-08-21T18:34:02.153Z,197.30
2018-08-21T18:36:30.436Z,177.38
2018-08-21T18:38:58.283Z,244.15
2018-08-21T18:41:26.209Z,186.37
2018-08-21T18:43:54.508Z,182.15
2018-08-21T18:46:22.377Z,187.75
2018-08-21T18:48:50.198Z,196.07
2018-08-21T18:51:18.420Z,181.27
2018-08-21T18:53:46.201Z,185.90
2018-08-21T18:56:14.048Z,181.65
2018-08-21T18:58:41.929Z,146.90
2018-08-21T19:01:09.493Z,190.70
2018-08-21T19:03:37.497Z,188.70
2018-08-21T19:06:05.069Z,175.65
2018-08-21T19:08:33.283Z,169.53
2018-08-21T19:11:00.847Z,157.60
2018-08-21T19:13:28.584Z,142.22
2018-08-21T19:15:56.070Z,146.15
2018-08-21T19:18:23.846Z,151.87
2018-08-21T19:20:51.375Z,129.25
2018-08-21T19:23:19.176Z,135.12
2018-08-21T19:25:46.619Z,120.50
2018-08-21T19:28:14.123Z,125.33
2018-08-21T19:30:41.672Z,142.07
2018-08-21T19:33:09.225Z,139.17
2018-08-21T19:35:37.085Z,123.87
2018-08-21T19:38:04.593Z,116.43
2018-08-21T19:40:32.141Z,119.02
2018-08-21T19:42:59.716Z,131.52
2018-08-21T19:45:27.809Z,134.43
2018-08-21T19:47:55.622Z,115.88
2018-08-21T19:50:23.117Z,108.70
2018-08-21T19:52:50.827Z,114.97
2018-08-21T19:55:18.307Z,118.13
2018-08-21T19:57:46.016Z,133.12
2018-08-21T20:00:13.800Z,101.40
2018-08-21T20:02:41.859Z,130.03
2018-08-21T20:05:09.445Z,128.32
2018-08-21T20:07:37.179Z,123.90
2018-08-21T20:10:04.830Z,123.62
2018-08-21T20:12:32.593Z,116.50
2018-08-21T20:15:00.519Z,116.28
2018-08-21T20:17:28.021Z,139.20
2018-08-21T20:19:55.848Z,115.62
2018-08-21T20:22:23.871Z,126.80
2018-08-21T20:24:51.392Z,138.37
2018-08-21T20:27:19.121Z,106.12
2018-08-21T20:29:46.611Z,118.05
2018-08-21T20:32:14.136Z,114.88
2018-08-21T20:34:41.991Z,109.43
2018-08-21T20:37:10.188Z,95.47
2018-08-21T20:39:37.737Z,118.93
2018-08-21T20:42:05.597Z,132.43
2018-08-21T20:44:33.033Z,107.03
2018-08-21T20:47:00.558Z,122.98
2018-08-21T20:49:28.031Z,93.37
2018-08-21T20:51:55.633Z,100.27
2018-08-21T20:54:23.244Z,118.05
2018-08-21T20:56:51.518Z,121.92
2018-08-21T20:59:19.241Z,109.70
2018-08-21T21:01:47.148Z,116.35
2018-08-21T21:04:14.921Z,99.05
2018-08-21T21:06:42.731Z,115.57
2018-08-21T21:09:12.896Z,104.97
2018-08-21T21:11:40.421Z,116.82
2018-08-21T21:14:13.544Z,120.50
2018-08-21T21:16:46.994Z,110.80
2018-08-21T21:19:20.179Z,118.00
2018-08-21T21:21:53.307Z,106.20
2018-08-21T21:24:24.187Z,110.45
2018-08-21T21:26:52.036Z,117.35
2018-08-21T21:29:20.070Z,103.15
2018-08-21T21:31:48.450Z,92.83
2018-08-21T21:34:16.027Z,92.75
2018-08-21T21:36:44.634Z,105.47
2018-08-21T21:39:13.979Z,107.23
2018-08-21T21:41:41.552Z,117.93
2018-08-21T21:44:09.919Z,123.87
2018-08-21T21:46:37.867Z,92.97
2018-08-21T21:49:06.280Z,104.38
2018-08-21T21:51:34.839Z,106.32
2018-08-21T21:54:03.223Z,83.17
2018-08-21T21:56:31.550Z,103.53
2018-08-21T21:58:58.990Z,85.35
2018-08-21T22:01:27.034Z,102.27
2018-08-21T22:03:55.139Z,91.50
2018-08-21T22:06:22.914Z,115.77
2018-08-21T22:08:50.374Z,94.63
2018-08-21T22:11:18.494Z,106.50
2018-08-21T22:13:46.061Z,107.85
2018-08-21T22:16:13.926Z,107.05
2018-08-21T22:18:41.698Z,108.57
2018-08-21T22:21:09.517Z,115.28
2018-08-21T22:23:36.996Z,110.30
2018-08-21T22:26:04.786Z,94.45
2018-08-21T22:28:32.301Z,97.12
2018-08-21T22:31:00.242Z,79.03
2018-08-21T22:33:28.279Z,108.25
2018-08-21T22:35:55.994Z,85.45
2018-08-21T22:38:23.913Z,82.67
2018-08-21T22:40:51.961Z,104.90
2018-08-21T22:43:19.900Z,94.30
2018-08-21T22:45:47.924Z,91.95
2018-08-21T22:48:16.386Z,75.78
2018-08-21T22:50:44.098Z,101.38
2018-08-21T22:53:11.543Z,93.83
2018-08-21T22:55:39.448Z,90.75
2018-08-21T22:58:07.571Z,109.47
2018-08-21T23:00:35.507Z,81.42
2018-08-21T23:03:03.679Z,85.07
2018-08-21T23:05:31.651Z,98.00
2018-08-21T23:07:59.136Z,85.67
2018-08-21T23:10:27.148Z,79.62
2018-08-21T23:12:54.595Z,86.45
2018-08-21T23:15:22.105Z,79.50
2018-08-21T23:17:50.712Z,100.53
2018-08-21T23:20:19.918Z,81.85
2018-08-21T23:22:47.876Z,93.58
2018-08-21T23:25:15.872Z,93.10
2018-08-21T23:27:43.711Z,84.83
2018-08-21T23:30:11.511Z,90.57
2018-08-21T23:32:39.258Z,84.30
2018-08-21T23:35:07.008Z,86.53
2018-08-21T23:37:35.419Z,88.60
2018-08-21T23:40:03.356Z,91.75
2018-08-21T23:42:31.493Z,86.08
2018-08-21T23:44:59.033Z,91.15
2018-08-21T23:47:27.164Z,72.03
2018-08-21T23:49:55.130Z,86.55
2018-08-21T23:52:22.571Z,88.60
2018-08-21T23:54:50.379Z,77.57
2018-08-21T23:57:18.247Z,88.62
2018-08-21T23:59:46.090Z,74.80
